sensor_id;sensor_type;location;lat;lon;timestamp;pressure;altitude;pressure_sealevel;temperature;humidity
26112;BME280;13829;48.990;8.346;2023-04-08T00:02:27;100837.69;;;10.88;100.00
26112;BME280;13829;48.990;8.346;2023-04-08T00:05:07;100834.88;;;10.73;100.00
26112;BME280;13829;48.990;8.346;2023-04-08T00:07:45;100838.38;;;10.72;100.00
26112;BME280;13829;48.990;8.346;2023-04-08T00:10:12;100836.69;;;10.80;100.00
26112;BME280;13829;48.990;8.346;2023-04-08T00:12:43;100838.34;;;10.70;100.00
26112;BME280;13829;48.990;8.346;2023-04-08T00:15:20;100841.78;;;10.65;100.00
26112;BME280;13829;48.990;8.346;2023-04-08T00:17:50;100842.69;;;10.67;100.00
26112;BME280;13829;48.990;8.346;2023-04-08T00:20:22;100846.19;;;10.64;100.00
26112;BME280;13829;48.990;8.346;2023-04-08T00:22:54;100848.97;;;10.78;100.00
26112;BME280;13829;48.990;8.346;2023-04-08T00:25:25;100843.59;;;10.69;100.00
26112;BME280;13829;48.990;8.346;2023-04-08T00:27:56;100847.06;;;10.66;100.00
26112;BME280;13829;48.990;8.346;2023-04-08T00:30:25;100847.34;;;10.89;100.00
26112;BME280;13829;48.990;8.346;2023-04-08T00:33:01;100845.34;;;10.70;100.00
26112;BME280;13829;48.990;8.346;2023-04-08T00:35:32;100839.88;;;10.51;100.00
26112;BME280;13829;48.990;8.346;2023-04-08T00:38:03;100847.72;;;10.45;100.00
26112;BME280;13829;48.990;8.346;2023-04-08T00:40:35;100839.84;;;10.48;100.00
26112;BME280;13829;48.990;8.346;2023-04-08T00:43:08;100844.19;;;10.46;100.00
26112;BME280;13829;48.990;8.346;2023-04-08T00:45:38;100843.47;;;10.56;100.00
26112;BME280;13829;48.990;8.346;2023-04-08T00:48:19;100840.00;;;10.60;100.00
26112;BME280;13829;48.990;8.346;2023-04-08T00:50:57;100842.63;;;10.59;100.00
26112;BME280;13829;48.990;8.346;2023-04-08T00:53:32;100847.03;;;10.62;100.00
26112;BME280;13829;48.990;8.346;2023-04-08T00:55:59;100851.41;;;10.63;100.00
26112;BME280;13829;48.990;8.346;2023-04-08T00:58:30;100850.63;;;10.70;100.00
26112;BME280;13829;48.990;8.346;2023-04-08T01:01:16;100849.78;;;10.72;100.00
26112;BME280;13829;48.990;8.346;2023-04-08T01:04:00;100847.91;;;10.65;100.00
26112;BME280;13829;48.990;8.346;2023-04-08T01:09:34;100853.16;;;10.60;100.00
26112;BME280;13829;48.990;8.346;2023-04-08T01:12:10;100848.81;;;10.66;100.00
26112;BME280;13829;48.990;8.346;2023-04-08T01:14:42;100847.28;;;10.83;100.00
26112;BME280;13829;48.990;8.346;2023-04-08T01:17:14;100850.63;;;10.70;100.00
26112;BME280;13829;48.990;8.346;2023-04-08T01:19:48;100854.16;;;10.72;100.00
26112;BME280;13829;48.990;8.346;2023-04-08T01:22:45;100855.88;;;10.71;100.00
26112;BME280;13829;48.990;8.346;2023-04-08T01:25:23;100855.78;;;10.60;100.00
26112;BME280;13829;48.990;8.346;2023-04-08T01:27:55;100850.44;;;10.56;100.00
26112;BME280;13829;48.990;8.346;2023-04-08T01:30:25;100851.38;;;10.61;100.00
26112;BME280;13829;48.990;8.346;2023-04-08T01:32:54;100853.13;;;10.59;100.00
26112;BME280;13829;48.990;8.346;2023-04-08T01:35:23;100851.34;;;10.56;100.00
26112;BME280;13829;48.990;8.346;2023-04-08T01:37:52;100853.41;;;10.82;100.00
26112;BME280;13829;48.990;8.346;2023-04-08T01:40:20;100851.41;;;10.63;100.00
26112;BME280;13829;48.990;8.346;2023-04-08T01:42:48;100853.06;;;10.54;100.00
26112;BME280;13829;48.990;8.346;2023-04-08T01:45:18;100845.44;;;10.76;100.00
26112;BME280;13829;48.990;8.346;2023-04-08T01:47:47;100846.94;;;10.55;100.00
26112;BME280;13829;48.990;8.346;2023-04-08T01:50:16;100850.44;;;10.54;100.00
26112;BME280;13829;48.990;8.346;2023-04-08T01:52:45;100841.72;;;10.57;100.00
26112;BME280;13829;48.990;8.346;2023-04-08T01:55:13;100842.56;;;10.57;100.00
26112;BME280;13829;48.990;8.346;2023-04-08T01:57:47;100843.66;;;10.75;100.00
26112;BME280;13829;48.990;8.346;2023-04-08T02:00:22;100838.16;;;10.53;100.00
26112;BME280;13829;48.990;8.346;2023-04-08T02:02:52;100846.00;;;10.50;100.00
26112;BME280;13829;48.990;8.346;2023-04-08T02:05:21;100840.69;;;10.44;100.00
26112;BME280;13829;48.990;8.346;2023-04-08T02:07:49;100840.69;;;10.44;100.00
26112;BME280;13829;48.990;8.346;2023-04-08T02:10:16;100845.09;;;10.48;100.00
26112;BME280;13829;48.990;8.346;2023-04-08T02:12:44;100843.31;;;10.47;100.00
26112;BME280;13829;48.990;8.346;2023-04-08T02:15:13;100848.59;;;10.47;100.00
26112;BME280;13829;48.990;8.346;2023-04-08T02:17:45;100842.38;;;10.39;100.00
26112;BME280;13829;48.990;8.346;2023-04-08T02:20:18;100850.34;;;10.45;100.00
26112;BME280;13829;48.990;8.346;2023-04-08T02:22:51;100841.53;;;10.43;100.00
26112;BME280;13829;48.990;8.346;2023-04-08T02:25:24;100841.53;;;10.43;100.00
26112;BME280;13829;48.990;8.346;2023-04-08T02:27:53;100843.31;;;10.47;100.00
26112;BME280;13829;48.990;8.346;2023-04-08T02:30:24;100838.09;;;10.49;100.00
26112;BME280;13829;48.990;8.346;2023-04-08T02:32:55;100847.72;;;10.48;100.00
26112;BME280;13829;48.990;8.346;2023-04-08T02:35:24;100844.22;;;10.48;100.00
26112;BME280;13829;48.990;8.346;2023-04-08T02:37:52;100843.50;;;10.63;100.00
26112;BME280;13829;48.990;8.346;2023-04-08T02:40:24;100838.16;;;10.55;100.00
26112;BME280;13829;48.990;8.346;2023-04-08T02:42:52;100843.31;;;10.44;100.00
26112;BME280;13829;48.990;8.346;2023-04-08T02:45:19;100837.34;;;10.59;100.00
26112;BME280;13829;48.990;8.346;2023-04-08T02:47:47;100838.22;;;10.56;100.00
26112;BME280;13829;48.990;8.346;2023-04-08T02:50:15;100838.03;;;10.44;100.00
26112;BME280;13829;48.990;8.346;2023-04-08T02:52:42;100842.47;;;10.50;100.00
26112;BME280;13829;48.990;8.346;2023-04-08T02:55:10;100846.75;;;10.40;100.00
26112;BME280;13829;48.990;8.346;2023-04-08T02:57:38;100843.09;;;10.28;100.00
26112;BME280;13829;48.990;8.346;2023-04-08T03:00:07;100844.94;;;10.36;100.00
26112;BME280;13829;48.990;8.346;2023-04-08T03:02:35;100851.81;;;10.27;100.00
26112;BME280;13829;48.990;8.346;2023-04-08T03:05:04;100851.75;;;10.23;100.00
26112;BME280;13829;48.990;8.346;2023-04-08T03:07:33;100850.91;;;10.24;100.00
26112;BME280;13829;48.990;8.346;2023-04-08T03:10:01;100843.09;;;10.28;100.00
26112;BME280;13829;48.990;8.346;2023-04-08T03:12:28;100844.88;;;10.33;100.00
26112;BME280;13829;48.990;8.346;2023-04-08T03:14:56;100848.41;;;10.35;100.00
26112;BME280;13829;48.990;8.346;2023-04-08T03:17:23;100844.94;;;10.36;100.00
26112;BME280;13829;48.990;8.346;2023-04-08T03:19:50;100842.31;;;10.36;100.00
26112;BME280;13829;48.990;8.346;2023-04-08T03:22:17;100845.88;;;10.41;100.00
26112;BME280;13829;48.990;8.346;2023-04-08T03:24:46;100851.84;;;10.31;100.00
26112;BME280;13829;48.990;8.346;2023-04-08T03:27:13;100842.25;;;10.33;100.00
26112;BME280;13829;48.990;8.346;2023-04-08T03:29:40;100850.13;;;10.33;100.00
26112;BME280;13829;48.990;8.346;2023-04-08T03:32:08;100850.97;;;10.30;100.00
26112;BME280;13829;48.990;8.346;2023-04-08T03:34:35;100846.59;;;10.31;100.00
26112;BME280;13829;48.990;8.346;2023-04-08T03:37:02;100850.97;;;10.30;100.00
26112;BME280;13829;48.990;8.346;2023-04-08T03:39:30;100857.16;;;10.34;100.00
26112;BME280;13829;48.990;8.346;2023-04-08T03:41:58;100855.34;;;10.29;100.00
26112;BME280;13829;48.990;8.346;2023-04-08T03:44:26;100851.00;;;10.32;100.00
26112;BME280;13829;48.990;8.346;2023-04-08T03:46:53;100861.53;;;10.33;100.00
26112;BME280;13829;48.990;8.346;2023-04-08T03:49:20;100854.59;;;10.38;100.00
26112;BME280;13829;48.990;8.346;2023-04-08T03:51:47;100851.97;;;10.38;100.00
26112;BME280;13829;48.990;8.346;2023-04-08T03:54:14;100854.69;;;10.43;100.00
26112;BME280;13829;48.990;8.346;2023-04-08T03:56:41;100855.56;;;10.43;100.00
26112;BME280;13829;48.990;8.346;2023-04-08T03:59:09;100852.06;;;10.43;100.00
26112;BME280;13829;48.990;8.346;2023-04-08T04:01:36;100850.44;;;10.54;100.00
26112;BME280;13829;48.990;8.346;2023-04-08T04:04:03;100854.72;;;10.46;100.00
26112;BME280;13829;48.990;8.346;2023-04-08T04:06:30;100846.88;;;10.49;100.00
26112;BME280;13829;48.990;8.346;2023-04-08T04:08:57;100856.25;;;10.33;100.00
26112;BME280;13829;48.990;8.346;2023-04-08T04:11:24;100851.91;;;10.34;100.00
26112;BME280;13829;48.990;8.346;2023-04-08T04:13:51;100851.81;;;10.27;100.00
26112;BME280;13829;48.990;8.346;2023-04-08T04:16:20;100852.69;;;10.28;100.00
26112;BME280;13829;48.990;8.346;2023-04-08T04:18:47;100851.84;;;10.31;100.00
26112;BME280;13829;48.990;8.346;2023-04-08T04:21:14;100858.88;;;10.30;100.00
26112;BME280;13829;48.990;8.346;2023-04-08T04:23:41;100858.84;;;10.28;100.00
26112;BME280;13829;48.990;8.346;2023-04-08T04:26:08;100861.47;;;10.28;100.00
26112;BME280;13829;48.990;8.346;2023-04-08T04:28:36;100863.22;;;10.28;100.00
26112;BME280;13829;48.990;8.346;2023-04-08T04:31:03;100869.50;;;10.36;100.00
26112;BME280;13829;48.990;8.346;2023-04-08T04:33:32;100861.50;;;10.32;100.00
26112;BME280;13829;48.990;8.346;2023-04-08T04:35:58;100865.06;;;10.34;100.00
26112;BME280;13829;48.990;8.346;2023-04-08T04:38:26;100869.59;;;10.44;100.00
26112;BME280;13829;48.990;8.346;2023-04-08T04:40:52;100862.66;;;10.49;100.00
26112;BME280;13829;48.990;8.346;2023-04-08T04:43:22;100861.34;;;10.21;100.00
26112;BME280;13829;48.990;8.346;2023-04-08T04:45:49;100864.78;;;10.14;100.00
26112;BME280;13829;48.990;8.346;2023-04-08T04:48:16;100862.94;;;10.09;100.00
26112;BME280;13829;48.990;8.346;2023-04-08T04:50:53;100874.28;;;10.07;100.00
26112;BME280;13829;48.990;8.346;2023-04-08T04:53:20;100873.47;;;10.09;100.00
26112;BME280;13829;48.990;8.346;2023-04-08T04:55:49;100877.00;;;10.13;100.00
26112;BME280;13829;48.990;8.346;2023-04-08T04:58:17;100878.69;;;10.08;100.00
26112;BME280;13829;48.990;8.346;2023-04-08T05:00:44;100880.50;;;10.12;100.00
26112;BME280;13829;48.990;8.346;2023-04-08T05:03:11;100883.13;;;10.10;100.00
26112;BME280;13829;48.990;8.346;2023-04-08T05:05:38;100883.38;;;10.29;100.00
26112;BME280;13829;48.990;8.346;2023-04-08T05:08:07;100884.13;;;10.20;100.00
26112;BME280;13829;48.990;8.346;2023-04-08T05:10:34;100889.31;;;10.16;100.00
26112;BME280;13829;48.990;8.346;2023-04-08T05:13:01;100895.59;;;10.24;100.00
26112;BME280;13829;48.990;8.346;2023-04-08T05:15:28;100891.09;;;10.17;100.00
26112;BME280;13829;48.990;8.346;2023-04-08T05:17:55;100899.09;;;10.24;100.00
26112;BME280;13829;48.990;8.346;2023-04-08T05:20:22;100897.41;;;10.29;100.00
26112;BME280;13829;48.990;8.346;2023-04-08T05:22:49;100896.34;;;10.15;100.00
26112;BME280;13829;48.990;8.346;2023-04-08T05:25:17;100903.56;;;10.30;100.00
26112;BME280;13829;48.990;8.346;2023-04-08T05:27:44;100906.09;;;10.22;100.00
26112;BME280;13829;48.990;8.346;2023-04-08T05:30:12;100902.53;;;10.20;100.00
26112;BME280;13829;48.990;8.346;2023-04-08T05:32:39;100903.50;;;10.27;100.00
26112;BME280;13829;48.990;8.346;2023-04-08T05:35:07;100905.59;;;10.48;100.00
26112;BME280;13829;48.990;8.346;2023-04-08T05:37:35;100903.69;;;10.36;100.00
26112;BME280;13829;48.990;8.346;2023-04-08T05:40:02;100907.28;;;10.43;100.00
26112;BME280;13829;48.990;8.346;2023-04-08T05:42:30;100909.06;;;10.47;100.00
26112;BME280;13829;48.990;8.346;2023-04-08T05:44:58;100912.63;;;10.49;100.00
26112;BME280;13829;48.990;8.346;2023-04-08T05:47:25;100908.31;;;10.57;100.00
26112;BME280;13829;48.990;8.346;2023-04-08T05:49:52;100914.56;;;10.64;100.00
26112;BME280;13829;48.990;8.346;2023-04-08T05:52:21;100923.44;;;10.72;100.00
26112;BME280;13829;48.990;8.346;2023-04-08T05:54:48;100919.25;;;10.88;100.00
26112;BME280;13829;48.990;8.346;2023-04-08T05:57:15;100930.72;;;10.93;100.00
26112;BME280;13829;48.990;8.346;2023-04-08T05:59:43;100917.72;;;11.10;100.00
26112;BME280;13829;48.990;8.346;2023-04-08T06:02:10;100919.50;;;11.13;100.00
26112;BME280;13829;48.990;8.346;2023-04-08T06:04:37;100926.69;;;11.26;100.00
26112;BME280;13829;48.990;8.346;2023-04-08T06:07:04;100925.84;;;11.29;100.00
26112;BME280;13829;48.990;8.346;2023-04-08T06:09:34;100931.09;;;11.28;100.00
26112;BME280;13829;48.990;8.346;2023-04-08T06:12:03;100939.22;;;11.52;100.00
26112;BME280;13829;48.990;8.346;2023-04-08T06:14:30;100930.53;;;11.59;100.00
26112;BME280;13829;48.990;8.346;2023-04-08T06:16:58;100931.41;;;11.60;100.00
26112;BME280;13829;48.990;8.346;2023-04-08T06:19:25;100940.25;;;11.67;100.00
26112;BME280;13829;48.990;8.346;2023-04-08T06:21:52;100934.16;;;11.71;100.00
26112;BME280;13829;48.990;8.346;2023-04-08T06:24:24;100939.03;;;11.31;100.00
26112;BME280;13829;48.990;8.346;2023-04-08T06:26:52;100947.78;;;11.28;100.00
26112;BME280;13829;48.990;8.346;2023-04-08T06:29:19;100939.94;;;11.37;100.00
26112;BME280;13829;48.990;8.346;2023-04-08T06:31:46;100949.69;;;11.43;100.00
26112;BME280;13829;48.990;8.346;2023-04-08T06:34:15;100945.28;;;11.40;100.00
26112;BME280;13829;48.990;8.346;2023-04-08T06:36:42;100946.22;;;11.47;100.00
26112;BME280;13829;48.990;8.346;2023-04-08T06:39:09;100946.25;;;11.50;100.00
26112;BME280;13829;48.990;8.346;2023-04-08T06:41:36;100946.13;;;11.38;100.00
26112;BME280;13829;48.990;8.346;2023-04-08T06:44:03;100956.03;;;11.64;100.00
26112;BME280;13829;48.990;8.346;2023-04-08T06:46:30;100951.75;;;11.75;100.00
26112;BME280;13829;48.990;8.346;2023-04-08T06:48:57;100953.63;;;11.88;100.00
26112;BME280;13829;48.990;8.346;2023-04-08T06:51:25;100955.34;;;11.86;100.00
26112;BME280;13829;48.990;8.346;2023-04-08T06:53:52;100956.38;;;11.99;100.00
26112;BME280;13829;48.990;8.346;2023-04-08T06:56:19;100958.13;;;12.02;100.00
26112;BME280;13829;48.990;8.346;2023-04-08T06:58:47;100958.78;;;11.76;97.95
26112;BME280;13829;48.990;8.346;2023-04-08T07:01:14;100962.16;;;11.63;98.90
26112;BME280;13829;48.990;8.346;2023-04-08T07:03:42;100955.94;;;11.53;99.65
26112;BME280;13829;48.990;8.346;2023-04-08T07:06:11;100967.25;;;11.42;98.82
26112;BME280;13829;48.990;8.346;2023-04-08T07:08:39;100968.13;;;11.46;98.19
26112;BME280;13829;48.990;8.346;2023-04-08T07:11:07;100969.25;;;11.67;92.46
26112;BME280;13829;48.990;8.346;2023-04-08T07:13:33;100965.63;;;11.58;93.48
26112;BME280;13829;48.990;8.346;2023-04-08T07:16:00;100972.81;;;11.73;91.98
26112;BME280;13829;48.990;8.346;2023-04-08T07:18:27;100977.97;;;11.63;92.52
26112;BME280;13829;48.990;8.346;2023-04-08T07:20:55;100981.69;;;11.83;89.88
26112;BME280;13829;48.990;8.346;2023-04-08T07:23:22;100976.31;;;11.74;90.23
26112;BME280;13829;48.990;8.346;2023-04-08T07:25:51;100981.69;;;11.83;90.61
26112;BME280;13829;48.990;8.346;2023-04-08T07:28:18;100985.25;;;11.88;89.37
26112;BME280;13829;48.990;8.346;2023-04-08T07:30:45;100974.81;;;11.99;89.27
26112;BME280;13829;48.990;8.346;2023-04-08T07:33:13;100980.19;;;12.13;86.60
26112;BME280;13829;48.990;8.346;2023-04-08T07:35:40;100974.34;;;12.56;89.64
26112;BME280;13829;48.990;8.346;2023-04-08T07:38:08;100978.09;;;13.00;86.52
26112;BME280;13829;48.990;8.346;2023-04-08T07:40:36;100984.44;;;13.58;80.00
26112;BME280;13829;48.990;8.346;2023-04-08T07:43:04;100981.88;;;14.04;75.67
26112;BME280;13829;48.990;8.346;2023-04-08T07:45:31;100978.25;;;14.58;73.80
26112;BME280;13829;48.990;8.346;2023-04-08T07:47:58;100988.88;;;14.50;70.91
26112;BME280;13829;48.990;8.346;2023-04-08T07:50:25;100991.53;;;14.48;68.56
26112;BME280;13829;48.990;8.346;2023-04-08T07:52:52;100984.47;;;14.71;69.68
26112;BME280;13829;48.990;8.346;2023-04-08T07:55:20;100986.19;;;14.76;72.71
26112;BME280;13829;48.990;8.346;2023-04-08T07:57:47;100987.97;;;14.74;70.07
26112;BME280;13829;48.990;8.346;2023-04-08T08:00:16;100985.31;;;14.68;69.43
26112;BME280;13829;48.990;8.346;2023-04-08T08:02:46;100982.47;;;15.22;65.87
26112;BME280;13829;48.990;8.346;2023-04-08T08:05:13;101003.75;;;15.05;63.92
26112;BME280;13829;48.990;8.346;2023-04-08T08:07:40;100997.59;;;14.97;65.92
26112;BME280;13829;48.990;8.346;2023-04-08T08:10:09;100997.97;;;15.92;63.77
26112;BME280;13829;48.990;8.346;2023-04-08T08:12:36;100997.34;;;16.63;57.99
26112;BME280;13829;48.990;8.346;2023-04-08T08:15:03;100999.22;;;16.55;57.37
26112;BME280;13829;48.990;8.346;2023-04-08T08:17:32;101000.00;;;17.39;56.08
26112;BME280;13829;48.990;8.346;2023-04-08T08:19:59;100999.25;;;16.49;56.78
26112;BME280;13829;48.990;8.346;2023-04-08T08:22:26;101002.22;;;17.03;57.71
26112;BME280;13829;48.990;8.346;2023-04-08T08:24:56;101003.06;;;17.07;54.93
26112;BME280;13829;48.990;8.346;2023-04-08T08:27:28;101009.94;;;16.42;56.64
26112;BME280;13829;48.990;8.346;2023-04-08T08:29:56;101007.78;;;15.74;57.83
26112;BME280;13829;48.990;8.346;2023-04-08T08:32:46;101010.63;;;15.49;57.90
26112;BME280;13829;48.990;8.346;2023-04-08T08:35:13;101010.69;;;15.31;60.42
26112;BME280;13829;48.990;8.346;2023-04-08T08:37:51;101010.66;;;15.43;60.81
26112;BME280;13829;48.990;8.346;2023-04-08T08:40:20;101017.69;;;15.47;60.38
26112;BME280;13829;48.990;8.346;2023-04-08T08:42:54;101015.91;;;15.46;62.59
26112;BME280;13829;48.990;8.346;2023-04-08T08:45:26;101014.31;;;15.14;59.95
26112;BME280;13829;48.990;8.346;2023-04-08T08:47:55;101015.28;;;14.89;63.36
26112;BME280;13829;48.990;8.346;2023-04-08T08:50:27;101010.91;;;14.78;63.03
26112;BME280;13829;48.990;8.346;2023-04-08T08:53:16;101025.94;;;14.41;66.26
26112;BME280;13829;48.990;8.346;2023-04-08T08:55:44;101031.22;;;14.38;61.98
26112;BME280;13829;48.990;8.346;2023-04-08T08:58:19;101031.25;;;14.39;61.38
26112;BME280;13829;48.990;8.346;2023-04-08T09:00:48;101024.19;;;14.24;63.92
26112;BME280;13829;48.990;8.346;2023-04-08T09:03:34;101028.59;;;13.91;60.54
26112;BME280;13829;48.990;8.346;2023-04-08T09:06:06;101040.91;;;13.81;60.93
26112;BME280;13829;48.990;8.346;2023-04-08T09:08:40;101039.91;;;13.39;62.36
26112;BME280;13829;48.990;8.346;2023-04-08T09:11:15;101043.47;;;13.53;62.82
26112;BME280;13829;48.990;8.346;2023-04-08T09:13:44;101037.28;;;13.51;64.40
26112;BME280;13829;48.990;8.346;2023-04-08T09:16:15;101032.13;;;14.16;61.79
26112;BME280;13829;48.990;8.346;2023-04-08T09:18:48;101027.69;;;14.31;64.04
26112;BME280;13829;48.990;8.346;2023-04-08T09:21:25;101033.84;;;14.58;60.08
26112;BME280;13829;48.990;8.346;2023-04-08T09:23:57;101030.31;;;14.85;58.72
26112;BME280;13829;48.990;8.346;2023-04-08T09:26:37;101033.88;;;14.55;56.64
26112;BME280;13829;48.990;8.346;2023-04-08T09:29:13;101040.06;;;14.71;57.47
26112;BME280;13829;48.990;8.346;2023-04-08T09:31:41;101040.94;;;14.25;59.66
26112;BME280;13829;48.990;8.346;2023-04-08T09:34:16;101035.63;;;14.03;58.57
26112;BME280;13829;48.990;8.346;2023-04-08T09:36:47;101037.38;;;13.82;60.16
26112;BME280;13829;48.990;8.346;2023-04-08T09:39:24;101039.19;;;14.11;59.13
26112;BME280;13829;48.990;8.346;2023-04-08T09:41:59;101025.94;;;14.24;59.75
26112;BME280;13829;48.990;8.346;2023-04-08T09:44:34;101034.75;;;14.54;57.23
26112;BME280;13829;48.990;8.346;2023-04-08T09:47:13;101035.63;;;14.71;59.53
26112;BME280;13829;48.990;8.346;2023-04-08T09:49:50;101017.00;;;14.96;62.05
26112;BME280;13829;48.990;8.346;2023-04-08T09:52:26;101031.16;;;14.96;55.72
26112;BME280;13829;48.990;8.346;2023-04-08T09:55:01;101033.84;;;14.79;53.38
26112;BME280;13829;48.990;8.346;2023-04-08T09:57:39;101043.56;;;14.71;56.35
26112;BME280;13829;48.990;8.346;2023-04-08T10:00:11;101038.28;;;14.73;56.77
26112;BME280;13829;48.990;8.346;2023-04-08T10:02:53;101036.47;;;14.89;56.20
26112;BME280;13829;48.990;8.346;2023-04-08T10:05:24;101040.06;;;14.66;55.01
26112;BME280;13829;48.990;8.346;2023-04-08T10:07:51;101052.38;;;14.58;53.63
26112;BME280;13829;48.990;8.346;2023-04-08T10:10:19;101040.06;;;14.71;54.15
26112;BME280;13829;48.990;8.346;2023-04-08T10:12:47;101041.75;;;15.03;52.50
26112;BME280;13829;48.990;8.346;2023-04-08T10:15:29;101039.88;;;15.26;50.99
26112;BME280;13829;48.990;8.346;2023-04-08T10:18:31;101038.88;;;15.52;52.35
26112;BME280;13829;48.990;8.346;2023-04-08T10:21:00;101046.09;;;15.14;50.60
26112;BME280;13829;48.990;8.346;2023-04-08T10:23:56;101035.31;;;15.52;50.10
26112;BME280;13829;48.990;8.346;2023-04-08T10:26:36;101030.97;;;15.44;49.98
26112;BME280;13829;48.990;8.346;2023-04-08T10:29:31;101034.47;;;15.46;48.70
26112;BME280;13829;48.990;8.346;2023-04-08T10:31:59;101037.31;;;15.06;47.63
26112;BME280;13829;48.990;8.346;2023-04-08T10:34:29;101042.66;;;14.94;47.84
26112;BME280;13829;48.990;8.346;2023-04-08T10:36:57;101034.72;;;14.92;46.20
26112;BME280;13829;48.990;8.346;2023-04-08T10:39:30;101026.66;;;15.17;50.03
26112;BME280;13829;48.990;8.346;2023-04-08T10:42:00;101024.84;;;15.30;48.26
26112;BME280;13829;48.990;8.346;2023-04-08T10:44:27;101023.81;;;15.59;49.54
26112;BME280;13829;48.990;8.346;2023-04-08T10:46:54;101033.50;;;15.66;44.60
26112;BME280;13829;48.990;8.346;2023-04-08T10:49:21;101027.16;;;15.95;45.12
26112;BME280;13829;48.990;8.346;2023-04-08T10:51:48;101011.81;;;16.34;46.67
26112;BME280;13829;48.990;8.346;2023-04-08T10:54:17;101023.47;;;16.13;43.99
26112;BME280;13829;48.990;8.346;2023-04-08T10:56:46;101027.09;;;16.03;43.14
26112;BME280;13829;48.990;8.346;2023-04-08T10:59:15;101020.19;;;15.74;44.34
26112;BME280;13829;48.990;8.346;2023-04-08T11:01:45;101008.72;;;15.73;46.39
26112;BME280;13829;48.990;8.346;2023-04-08T11:04:13;101023.03;;;15.38;44.64
26112;BME280;13829;48.990;8.346;2023-04-08T11:06:42;101024.84;;;15.28;46.10
26112;BME280;13829;48.990;8.346;2023-04-08T11:09:13;101016.84;;;15.36;45.39
26112;BME280;13829;48.990;8.346;2023-04-08T11:11:44;101016.03;;;15.25;43.36
26112;BME280;13829;48.990;8.346;2023-04-08T11:14:13;101022.22;;;15.22;44.28
26112;BME280;13829;48.990;8.346;2023-04-08T11:16:42;101013.38;;;15.25;45.52
26112;BME280;13829;48.990;8.346;2023-04-08T11:19:09;101021.31;;;15.25;43.71
26112;BME280;13829;48.990;8.346;2023-04-08T11:21:36;101019.72;;;14.83;46.11
26112;BME280;13829;48.990;8.346;2023-04-08T11:24:09;101030.34;;;14.45;47.87
26112;BME280;13829;48.990;8.346;2023-04-08T11:26:39;101032.13;;;14.19;48.89
26112;BME280;13829;48.990;8.346;2023-04-08T11:29:10;101029.47;;;14.13;48.93
26112;BME280;13829;48.990;8.346;2023-04-08T11:31:39;101026.84;;;14.01;49.66
26112;BME280;13829;48.990;8.346;2023-04-08T11:34:07;101020.66;;;14.22;50.67
26112;BME280;13829;48.990;8.346;2023-04-08T11:36:35;101029.47;;;14.27;49.26
26112;BME280;13829;48.990;8.346;2023-04-08T11:39:08;101015.34;;;14.41;48.23
26112;BME280;13829;48.990;8.346;2023-04-08T11:41:36;101023.28;;;14.42;46.56
26112;BME280;13829;48.990;8.346;2023-04-08T11:44:04;101025.94;;;14.33;44.27
26112;BME280;13829;48.990;8.346;2023-04-08T11:46:33;101020.66;;;14.22;44.61
26112;BME280;13829;48.990;8.346;2023-04-08T11:49:03;101024.16;;;13.99;42.95
26112;BME280;13829;48.990;8.346;2023-04-08T11:51:31;101030.34;;;13.92;43.70
26112;BME280;13829;48.990;8.346;2023-04-08T11:54:03;101035.63;;;13.94;43.52
26112;BME280;13829;48.990;8.346;2023-04-08T11:56:43;101025.94;;;14.13;44.14
26112;BME280;13829;48.990;8.346;2023-04-08T11:59:11;101026.84;;;14.16;44.49
26112;BME280;13829;48.990;8.346;2023-04-08T12:01:39;101031.22;;;14.10;43.06
26112;BME280;13829;48.990;8.346;2023-04-08T12:04:06;101027.72;;;14.00;44.46
26112;BME280;13829;48.990;8.346;2023-04-08T12:06:39;101030.34;;;14.25;46.66
26112;BME280;13829;48.990;8.346;2023-04-08T12:09:08;101017.13;;;14.12;46.98
26112;BME280;13829;48.990;8.346;2023-04-08T12:11:35;101018.88;;;14.21;46.26
26112;BME280;13829;48.990;8.346;2023-04-08T12:14:02;101024.19;;;14.30;46.77
26112;BME280;13829;48.990;8.346;2023-04-08T12:16:29;101023.28;;;14.70;45.76
26112;BME280;13829;48.990;8.346;2023-04-08T12:18:57;101014.38;;;14.97;45.67
26112;BME280;13829;48.990;8.346;2023-04-08T12:21:25;101019.75;;;14.65;44.80
26112;BME280;13829;48.990;8.346;2023-04-08T12:23:52;101029.47;;;14.33;45.59
26112;BME280;13829;48.990;8.346;2023-04-08T12:26:19;101025.06;;;14.48;45.90
26112;BME280;13829;48.990;8.346;2023-04-08T12:28:46;101017.97;;;14.72;46.69
26112;BME280;13829;48.990;8.346;2023-04-08T12:31:13;101016.16;;;14.84;47.36
26112;BME280;13829;48.990;8.346;2023-04-08T12:33:40;101025.91;;;14.87;46.00
26112;BME280;13829;48.990;8.346;2023-04-08T12:36:08;101025.03;;;14.71;45.83
26112;BME280;13829;48.990;8.346;2023-04-08T12:38:35;101019.66;;;14.99;46.89
26112;BME280;13829;48.990;8.346;2023-04-08T12:41:03;101017.91;;;15.01;46.33
26112;BME280;13829;48.990;8.346;2023-04-08T12:43:30;101020.50;;;15.10;45.18
26112;BME280;13829;48.990;8.346;2023-04-08T12:45:57;101023.09;;;15.29;42.89
26112;BME280;13829;48.990;8.346;2023-04-08T12:48:24;101029.44;;;14.74;42.85
26112;BME280;13829;48.990;8.346;2023-04-08T12:50:52;101031.22;;;14.42;43.72
26112;BME280;13829;48.990;8.346;2023-04-08T12:53:20;101031.22;;;14.42;44.73
26112;BME280;13829;48.990;8.346;2023-04-08T12:55:47;101029.44;;;14.47;46.58
26112;BME280;13829;48.990;8.346;2023-04-08T12:58:14;101027.69;;;14.77;43.33
26112;BME280;13829;48.990;8.346;2023-04-08T13:00:42;101040.03;;;14.58;41.65
26112;BME280;13829;48.990;8.346;2023-04-08T13:03:11;101019.75;;;14.77;43.63